sensor_id;sensor_type;location;lat;lon;timestamp;temperature;humidity
11965;DHT22;6042;41.326;19.826;2023-05-10T00:01:24;18.50;99.90
11965;DHT22;6042;41.326;19.826;2023-05-10T00:03:53;18.50;99.90
11965;DHT22;6042;41.326;19.826;2023-05-10T00:06:22;18.40;99.90
11965;DHT22;6042;41.326;19.826;2023-05-10T00:08:51;18.40;99.90
11965;DHT22;6042;41.326;19.826;2023-05-10T00:11:19;18.50;99.90
11965;DHT22;6042;41.326;19.826;2023-05-10T00:13:49;18.40;99.90
11965;DHT22;6042;41.326;19.826;2023-05-10T00:16:18;18.30;99.90
11965;DHT22;6042;41.326;19.826;2023-05-10T00:18:48;18.00;99.90
11965;DHT22;6042;41.326;19.826;2023-05-10T00:21:17;17.80;99.90
11965;DHT22;6042;41.326;19.826;2023-05-10T00:23:45;17.40;99.90
11965;DHT22;6042;41.326;19.826;2023-05-10T00:26:15;17.20;99.90
11965;DHT22;6042;41.326;19.826;2023-05-10T00:28:49;17.10;99.90
11965;DHT22;6042;41.326;19.826;2023-05-10T00:31:17;16.90;99.90
11965;DHT22;6042;41.326;19.826;2023-05-10T00:33:47;16.80;99.90
11965;DHT22;6042;41.326;19.826;2023-05-10T00:36:16;16.60;99.90
11965;DHT22;6042;41.326;19.826;2023-05-10T00:38:44;16.30;99.90
11965;DHT22;6042;41.326;19.826;2023-05-10T00:41:13;16.20;99.90
11965;DHT22;6042;41.326;19.826;2023-05-10T00:43:43;16.10;99.90
11965;DHT22;6042;41.326;19.826;2023-05-10T00:46:12;16.10;99.90
11965;DHT22;6042;41.326;19.826;2023-05-10T00:48:43;16.00;99.90
11965;DHT22;6042;41.326;19.826;2023-05-10T00:51:13;15.90;99.90
11965;DHT22;6042;41.326;19.826;2023-05-10T00:53:43;15.90;99.90
11965;DHT22;6042;41.326;19.826;2023-05-10T00:56:12;16.00;99.90
11965;DHT22;6042;41.326;19.826;2023-05-10T00:58:40;15.90;99.90
11965;DHT22;6042;41.326;19.826;2023-05-10T01:01:09;15.90;99.90
11965;DHT22;6042;41.326;19.826;2023-05-10T01:03:41;15.80;99.90
11965;DHT22;6042;41.326;19.826;2023-05-10T01:06:09;15.70;99.90
11965;DHT22;6042;41.326;19.826;2023-05-10T01:08:39;15.60;99.90
11965;DHT22;6042;41.326;19.826;2023-05-10T01:11:09;15.50;99.90
11965;DHT22;6042;41.326;19.826;2023-05-10T01:13:42;15.50;99.90
11965;DHT22;6042;41.326;19.826;2023-05-10T01:16:12;15.50;99.90
11965;DHT22;6042;41.326;19.826;2023-05-10T01:18:41;15.60;99.90
11965;DHT22;6042;41.326;19.826;2023-05-10T01:21:21;15.50;99.90
11965;DHT22;6042;41.326;19.826;2023-05-10T01:24:12;15.50;99.90
11965;DHT22;6042;41.326;19.826;2023-05-10T01:27:17;15.40;99.90
11965;DHT22;6042;41.326;19.826;2023-05-10T01:30:15;15.50;99.90
11965;DHT22;6042;41.326;19.826;2023-05-10T01:32:52;15.50;99.90
11965;DHT22;6042;41.326;19.826;2023-05-10T01:35:31;15.50;99.90
11965;DHT22;6042;41.326;19.826;2023-05-10T01:38:09;15.40;99.90
11965;DHT22;6042;41.326;19.826;2023-05-10T01:40:51;15.40;99.90
11965;DHT22;6042;41.326;19.826;2023-05-10T01:43:26;15.40;99.90
11965;DHT22;6042;41.326;19.826;2023-05-10T01:46:00;15.50;99.90
11965;DHT22;6042;41.326;19.826;2023-05-10T01:48:47;15.40;99.90
11965;DHT22;6042;41.326;19.826;2023-05-10T01:51:19;15.40;99.90
11965;DHT22;6042;41.326;19.826;2023-05-10T01:53:53;15.40;99.90
11965;DHT22;6042;41.326;19.826;2023-05-10T01:56:24;15.30;99.90
11965;DHT22;6042;41.326;19.826;2023-05-10T01:58:54;15.30;99.90
11965;DHT22;6042;41.326;19.826;2023-05-10T02:01:24;15.30;99.90
11965;DHT22;6042;41.326;19.826;2023-05-10T02:03:56;15.30;99.90
11965;DHT22;6042;41.326;19.826;2023-05-10T02:06:26;15.30;99.90
11965;DHT22;6042;41.326;19.826;2023-05-10T02:08:55;15.30;99.90
11965;DHT22;6042;41.326;19.826;2023-05-10T02:11:25;15.30;99.90
11965;DHT22;6042;41.326;19.826;2023-05-10T02:13:56;15.40;99.90
11965;DHT22;6042;41.326;19.826;2023-05-10T02:16:28;15.40;99.90
11965;DHT22;6042;41.326;19.826;2023-05-10T02:19:01;15.30;99.90
11965;DHT22;6042;41.326;19.826;2023-05-10T02:21:30;15.20;99.90
11965;DHT22;6042;41.326;19.826;2023-05-10T02:24:02;15.20;99.90
11965;DHT22;6042;41.326;19.826;2023-05-10T02:26:35;15.20;99.90
11965;DHT22;6042;41.326;19.826;2023-05-10T02:29:06;15.20;99.90
11965;DHT22;6042;41.326;19.826;2023-05-10T02:31:35;15.20;99.90
11965;DHT22;6042;41.326;19.826;2023-05-10T02:34:08;15.20;99.90
11965;DHT22;6042;41.326;19.826;2023-05-10T02:36:39;15.30;99.90
11965;DHT22;6042;41.326;19.826;2023-05-10T02:39:08;15.30;99.90
11965;DHT22;6042;41.326;19.826;2023-05-10T02:41:42;15.30;99.90
11965;DHT22;6042;41.326;19.826;2023-05-10T02:44:12;15.30;99.90
11965;DHT22;6042;41.326;19.826;2023-05-10T02:46:41;15.30;99.90
11965;DHT22;6042;41.326;19.826;2023-05-10T02:49:11;15.40;99.90
11965;DHT22;6042;41.326;19.826;2023-05-10T02:51:44;15.40;99.90
11965;DHT22;6042;41.326;19.826;2023-05-10T02:54:22;15.40;99.90
11965;DHT22;6042;41.326;19.826;2023-05-10T02:56:57;15.40;99.90
11965;DHT22;6042;41.326;19.826;2023-05-10T02:59:26;15.40;99.90
11965;DHT22;6042;41.326;19.826;2023-05-10T03:01:55;15.30;99.90
11965;DHT22;6042;41.326;19.826;2023-05-10T03:04:25;15.30;99.90
11965;DHT22;6042;41.326;19.826;2023-05-10T03:06:56;15.30;99.90
11965;DHT22;6042;41.326;19.826;2023-05-10T03:09:25;15.30;99.90
11965;DHT22;6042;41.326;19.826;2023-05-10T03:12:03;15.30;99.90
11965;DHT22;6042;41.326;19.826;2023-05-10T03:14:45;15.40;99.90
11965;DHT22;6042;41.326;19.826;2023-05-10T03:17:23;15.40;99.90
11965;DHT22;6042;41.326;19.826;2023-05-10T03:19:58;15.40;99.90
11965;DHT22;6042;41.326;19.826;2023-05-10T03:22:33;15.30;99.90
11965;DHT22;6042;41.326;19.826;2023-05-10T03:25:06;15.40;99.90
11965;DHT22;6042;41.326;19.826;2023-05-10T03:27:40;15.60;99.90
11965;DHT22;6042;41.326;19.826;2023-05-10T03:30:16;15.70;99.90
11965;DHT22;6042;41.326;19.826;2023-05-10T03:32:45;15.70;99.90
11965;DHT22;6042;41.326;19.826;2023-05-10T03:35:18;15.70;99.90
11965;DHT22;6042;41.326;19.826;2023-05-10T03:37:46;15.80;99.90
11965;DHT22;6042;41.326;19.826;2023-05-10T03:40:15;15.80;99.90
11965;DHT22;6042;41.326;19.826;2023-05-10T03:42:44;16.00;99.90
11965;DHT22;6042;41.326;19.826;2023-05-10T03:45:13;15.90;99.90
11965;DHT22;6042;41.326;19.826;2023-05-10T03:47:42;15.90;99.90
11965;DHT22;6042;41.326;19.826;2023-05-10T03:50:10;16.00;99.90
11965;DHT22;6042;41.326;19.826;2023-05-10T03:52:40;16.10;99.90
11965;DHT22;6042;41.326;19.826;2023-05-10T03:55:09;16.20;99.90
11965;DHT22;6042;41.326;19.826;2023-05-10T03:57:37;16.20;99.90
11965;DHT22;6042;41.326;19.826;2023-05-10T04:00:08;16.20;99.90
11965;DHT22;6042;41.326;19.826;2023-05-10T04:02:42;16.20;99.90
11965;DHT22;6042;41.326;19.826;2023-05-10T04:05:17;16.30;99.90
11965;DHT22;6042;41.326;19.826;2023-05-10T04:07:48;16.30;99.90
11965;DHT22;6042;41.326;19.826;2023-05-10T04:10:18;16.30;99.90
11965;DHT22;6042;41.326;19.826;2023-05-10T04:12:47;16.30;99.90
11965;DHT22;6042;41.326;19.826;2023-05-10T04:15:15;16.40;99.90
11965;DHT22;6042;41.326;19.826;2023-05-10T04:17:44;16.50;99.90
11965;DHT22;6042;41.326;19.826;2023-05-10T04:20:13;16.50;99.90
11965;DHT22;6042;41.326;19.826;2023-05-10T04:22:42;16.60;99.90
11965;DHT22;6042;41.326;19.826;2023-05-10T04:25:13;16.60;99.90
11965;DHT22;6042;41.326;19.826;2023-05-10T04:27:41;16.50;99.90
11965;DHT22;6042;41.326;19.826;2023-05-10T04:30:10;16.60;99.90
11965;DHT22;6042;41.326;19.826;2023-05-10T04:32:39;16.60;99.90
11965;DHT22;6042;41.326;19.826;2023-05-10T04:35:08;16.60;99.90
11965;DHT22;6042;41.326;19.826;2023-05-10T04:37:39;16.40;99.90
11965;DHT22;6042;41.326;19.826;2023-05-10T04:40:09;16.50;99.90
11965;DHT22;6042;41.326;19.826;2023-05-10T04:42:39;16.60;99.90
11965;DHT22;6042;41.326;19.826;2023-05-10T04:45:09;16.60;99.90
11965;DHT22;6042;41.326;19.826;2023-05-10T04:47:37;16.50;99.90
11965;DHT22;6042;41.326;19.826;2023-05-10T04:50:07;16.60;99.90
11965;DHT22;6042;41.326;19.826;2023-05-10T04:52:35;16.60;99.90
11965;DHT22;6042;41.326;19.826;2023-05-10T04:55:05;16.60;99.90
11965;DHT22;6042;41.326;19.826;2023-05-10T04:57:34;16.60;99.90
11965;DHT22;6042;41.326;19.826;2023-05-10T05:00:06;16.60;99.90
11965;DHT22;6042;41.326;19.826;2023-05-10T05:02:35;16.50;99.90
11965;DHT22;6042;41.326;19.826;2023-05-10T05:05:04;16.50;99.90
11965;DHT22;6042;41.326;19.826;2023-05-10T05:07:33;16.60;99.90
11965;DHT22;6042;41.326;19.826;2023-05-10T05:10:01;16.50;99.90
11965;DHT22;6042;41.326;19.826;2023-05-10T05:12:30;16.50;99.90
11965;DHT22;6042;41.326;19.826;2023-05-10T05:14:59;16.40;99.90
11965;DHT22;6042;41.326;19.826;2023-05-10T05:17:30;16.50;99.90
11965;DHT22;6042;41.326;19.826;2023-05-10T05:19:58;16.70;99.90
11965;DHT22;6042;41.326;19.826;2023-05-10T05:22:27;16.80;99.90
11965;DHT22;6042;41.326;19.826;2023-05-10T05:24:56;17.00;99.90
11965;DHT22;6042;41.326;19.826;2023-05-10T05:27:25;17.10;99.90
11965;DHT22;6042;41.326;19.826;2023-05-10T05:29:55;17.00;99.90
11965;DHT22;6042;41.326;19.826;2023-05-10T05:32:24;17.10;99.90
11965;DHT22;6042;41.326;19.826;2023-05-10T05:34:54;17.20;99.90
11965;DHT22;6042;41.326;19.826;2023-05-10T05:37:22;17.30;99.90
11965;DHT22;6042;41.326;19.826;2023-05-10T05:39:51;17.50;99.90
11965;DHT22;6042;41.326;19.826;2023-05-10T05:42:21;17.60;99.90
11965;DHT22;6042;41.326;19.826;2023-05-10T05:44:50;17.60;99.90
11965;DHT22;6042;41.326;19.826;2023-05-10T05:47:18;17.80;99.90
11965;DHT22;6042;41.326;19.826;2023-05-10T05:49:50;17.90;99.90
11965;DHT22;6042;41.326;19.826;2023-05-10T05:52:20;18.00;99.90
11965;DHT22;6042;41.326;19.826;2023-05-10T05:54:49;18.10;99.90
11965;DHT22;6042;41.326;19.826;2023-05-10T05:57:17;18.20;99.90
11965;DHT22;6042;41.326;19.826;2023-05-10T05:59:46;18.40;99.90
11965;DHT22;6042;41.326;19.826;2023-05-10T06:02:14;18.60;99.90
11965;DHT22;6042;41.326;19.826;2023-05-10T06:04:43;18.70;99.90
11965;DHT22;6042;41.326;19.826;2023-05-10T06:07:11;18.70;99.90
11965;DHT22;6042;41.326;19.826;2023-05-10T06:09:42;18.80;99.90
11965;DHT22;6042;41.326;19.826;2023-05-10T06:12:11;18.80;99.90
11965;DHT22;6042;41.326;19.826;2023-05-10T06:14:40;18.70;99.90
11965;DHT22;6042;41.326;19.826;2023-05-10T06:17:08;18.80;99.90
11965;DHT22;6042;41.326;19.826;2023-05-10T06:19:37;18.90;99.90
11965;DHT22;6042;41.326;19.826;2023-05-10T06:22:05;19.00;99.90
11965;DHT22;6042;41.326;19.826;2023-05-10T06:24:34;19.00;99.90
11965;DHT22;6042;41.326;19.826;2023-05-10T06:27:07;19.00;99.90
11965;DHT22;6042;41.326;19.826;2023-05-10T06:29:36;19.10;99.90
11965;DHT22;6042;41.326;19.826;2023-05-10T06:32:04;19.00;99.90
11965;DHT22;6042;41.326;19.826;2023-05-10T06:34:33;19.10;99.90
11965;DHT22;6042;41.326;19.826;2023-05-10T06:37:01;19.00;99.90
11965;DHT22;6042;41.326;19.826;2023-05-10T06:39:31;19.00;99.90
11965;DHT22;6042;41.326;19.826;2023-05-10T06:41:59;19.10;99.90
11965;DHT22;6042;41.326;19.826;2023-05-10T06:44:33;19.00;99.90
11965;DHT22;6042;41.326;19.826;2023-05-10T06:47:02;18.90;99.90
11965;DHT22;6042;41.326;19.826;2023-05-10T06:49:30;19.00;99.90
11965;DHT22;6042;41.326;19.826;2023-05-10T06:51:59;18.90;99.90
11965;DHT22;6042;41.326;19.826;2023-05-10T06:54:28;19.00;99.90
11965;DHT22;6042;41.326;19.826;2023-05-10T06:56:56;19.00;99.90
11965;DHT22;6042;41.326;19.826;2023-05-10T06:59:26;18.90;99.90
11965;DHT22;6042;41.326;19.826;2023-05-10T07:01:56;18.90;99.90
11965;DHT22;6042;41.326;19.826;2023-05-10T07:04:25;19.10;99.90
11965;DHT22;6042;41.326;19.826;2023-05-10T07:06:55;19.20;99.90
11965;DHT22;6042;41.326;19.826;2023-05-10T07:09:24;19.40;99.90
11965;DHT22;6042;41.326;19.826;2023-05-10T07:11:54;19.40;99.90
11965;DHT22;6042;41.326;19.826;2023-05-10T07:14:24;19.40;99.90
11965;DHT22;6042;41.326;19.826;2023-05-10T07:16:53;19.60;99.90
11965;DHT22;6042;41.326;19.826;2023-05-10T07:19:23;19.50;99.90
11965;DHT22;6042;41.326;19.826;2023-05-10T07:21:52;19.50;99.90
11965;DHT22;6042;41.326;19.826;2023-05-10T07:24:21;19.50;99.90
11965;DHT22;6042;41.326;19.826;2023-05-10T07:26:50;19.50;99.90
11965;DHT22;6042;41.326;19.826;2023-05-10T07:29:19;19.50;99.90
11965;DHT22;6042;41.326;19.826;2023-05-10T07:31:48;19.50;99.90
11965;DHT22;6042;41.326;19.826;2023-05-10T07:34:17;19.50;99.90
11965;DHT22;6042;41.326;19.826;2023-05-10T07:36:47;19.60;99.90
11965;DHT22;6042;41.326;19.826;2023-05-10T07:39:16;19.60;99.90
11965;DHT22;6042;41.326;19.826;2023-05-10T07:41:55;19.50;99.90
11965;DHT22;6042;41.326;19.826;2023-05-10T07:44:24;19.60;99.90
11965;DHT22;6042;41.326;19.826;2023-05-10T07:46:52;19.70;99.90
11965;DHT22;6042;41.326;19.826;2023-05-10T07:49:21;19.60;99.90
11965;DHT22;6042;41.326;19.826;2023-05-10T07:51:52;19.50;99.90
11965;DHT22;6042;41.326;19.826;2023-05-10T07:54:21;19.70;99.90
11965;DHT22;6042;41.326;19.826;2023-05-10T07:56:50;19.90;99.90
11965;DHT22;6042;41.326;19.826;2023-05-10T07:59:19;20.00;99.90
11965;DHT22;6042;41.326;19.826;2023-05-10T08:01:47;20.20;99.90
11965;DHT22;6042;41.326;19.826;2023-05-10T08:04:16;20.10;99.90
11965;DHT22;6042;41.326;19.826;2023-05-10T08:06:45;20.10;99.90
11965;DHT22;6042;41.326;19.826;2023-05-10T08:09:16;20.10;99.90
11965;DHT22;6042;41.326;19.826;2023-05-10T08:11:44;20.10;99.90
11965;DHT22;6042;41.326;19.826;2023-05-10T08:14:13;20.00;99.90
11965;DHT22;6042;41.326;19.826;2023-05-10T08:16:42;20.00;99.90
11965;DHT22;6042;41.326;19.826;2023-05-10T08:19:10;20.00;99.90
11965;DHT22;6042;41.326;19.826;2023-05-10T08:21:39;20.30;99.90
11965;DHT22;6042;41.326;19.826;2023-05-10T08:24:09;20.50;99.90
11965;DHT22;6042;41.326;19.826;2023-05-10T08:26:42;20.70;99.90
11965;DHT22;6042;41.326;19.826;2023-05-10T08:29:14;20.80;99.90
11965;DHT22;6042;41.326;19.826;2023-05-10T08:31:44;20.80;99.90
11965;DHT22;6042;41.326;19.826;2023-05-10T08:34:12;21.00;99.90
11965;DHT22;6042;41.326;19.826;2023-05-10T08:36:41;21.20;99.90
11965;DHT22;6042;41.326;19.826;2023-05-10T08:39:09;21.30;99.90
11965;DHT22;6042;41.326;19.826;2023-05-10T08:42:02;21.40;99.90
11965;DHT22;6042;41.326;19.826;2023-05-10T08:44:34;21.50;99.90
11965;DHT22;6042;41.326;19.826;2023-05-10T08:47:05;21.60;99.90
11965;DHT22;6042;41.326;19.826;2023-05-10T08:49:35;21.60;99.90
11965;DHT22;6042;41.326;19.826;2023-05-10T08:52:07;21.50;99.90
11965;DHT22;6042;41.326;19.826;2023-05-10T08:54:38;21.40;99.90
11965;DHT22;6042;41.326;19.826;2023-05-10T08:57:08;21.20;99.90
11965;DHT22;6042;41.326;19.826;2023-05-10T08:59:37;21.10;99.90
11965;DHT22;6042;41.326;19.826;2023-05-10T09:02:10;21.30;99.90
11965;DHT22;6042;41.326;19.826;2023-05-10T09:04:42;21.40;99.90
11965;DHT22;6042;41.326;19.826;2023-05-10T09:07:11;21.70;99.90
11965;DHT22;6042;41.326;19.826;2023-05-10T09:09:41;21.90;99.90
11965;DHT22;6042;41.326;19.826;2023-05-10T09:12:14;21.70;99.90
11965;DHT22;6042;41.326;19.826;2023-05-10T09:14:59;21.70;99.90
11965;DHT22;6042;41.326;19.826;2023-05-10T09:17:37;22.00;99.90
11965;DHT22;6042;41.326;19.826;2023-05-10T09:20:08;21.90;99.90
11965;DHT22;6042;41.326;19.826;2023-05-10T09:22:36;21.90;99.90
11965;DHT22;6042;41.326;19.826;2023-05-10T09:25:08;21.80;99.90
11965;DHT22;6042;41.326;19.826;2023-05-10T09:27:40;21.90;99.90
11965;DHT22;6042;41.326;19.826;2023-05-10T09:30:09;22.10;99.90
11965;DHT22;6042;41.326;19.826;2023-05-10T09:32:39;22.10;99.90
11965;DHT22;6042;41.326;19.826;2023-05-10T09:35:09;22.10;99.90
11965;DHT22;6042;41.326;19.826;2023-05-10T09:37:39;22.30;99.90
11965;DHT22;6042;41.326;19.826;2023-05-10T09:40:12;22.40;99.90
11965;DHT22;6042;41.326;19.826;2023-05-10T09:42:43;22.40;99.90
11965;DHT22;6042;41.326;19.826;2023-05-10T09:45:18;22.50;99.90
11965;DHT22;6042;41.326;19.826;2023-05-10T09:47:47;22.30;99.90
11965;DHT22;6042;41.326;19.826;2023-05-10T09:50:16;22.50;99.90
11965;DHT22;6042;41.326;19.826;2023-05-10T09:52:50;22.60;99.90
11965;DHT22;6042;41.326;19.826;2023-05-10T09:55:20;22.60;99.90
11965;DHT22;6042;41.326;19.826;2023-05-10T09:58:00;22.80;99.70
11965;DHT22;6042;41.326;19.826;2023-05-10T10:00:34;22.90;99.50
11965;DHT22;6042;41.326;19.826;2023-05-10T10:03:04;23.00;98.90
11965;DHT22;6042;41.326;19.826;2023-05-10T10:05:34;22.80;99.50
11965;DHT22;6042;41.326;19.826;2023-05-10T10:08:04;22.80;99.90
11965;DHT22;6042;41.326;19.826;2023-05-10T10:10:33;23.00;98.60
11965;DHT22;6042;41.326;19.826;2023-05-10T10:13:04;23.20;96.20
11965;DHT22;6042;41.326;19.826;2023-05-10T10:15:33;23.20;95.70
11965;DHT22;6042;41.326;19.826;2023-05-10T10:18:03;23.20;95.80
11965;DHT22;6042;41.326;19.826;2023-05-10T10:20:35;23.40;96.10
11965;DHT22;6042;41.326;19.826;2023-05-10T10:23:05;23.60;95.90
11965;DHT22;6042;41.326;19.826;2023-05-10T10:25:34;23.80;95.20
11965;DHT22;6042;41.326;19.826;2023-05-10T10:28:16;23.90;95.90
11965;DHT22;6042;41.326;19.826;2023-05-10T10:30:50;23.90;96.40
11965;DHT22;6042;41.326;19.826;2023-05-10T10:33:54;23.70;95.50
11965;DHT22;6042;41.326;19.826;2023-05-10T10:36:24;23.80;95.00
11965;DHT22;6042;41.326;19.826;2023-05-10T10:38:58;23.70;95.60
11965;DHT22;6042;41.326;19.826;2023-05-10T10:41:33;23.60;95.80
11965;DHT22;6042;41.326;19.826;2023-05-10T10:44:33;23.70;95.60
11965;DHT22;6042;41.326;19.826;2023-05-10T10:47:07;23.80;95.00
11965;DHT22;6042;41.326;19.826;2023-05-10T10:49:43;24.00;94.30
11965;DHT22;6042;41.326;19.826;2023-05-10T10:59:45;24.20;94.30
11965;DHT22;6042;41.326;19.826;2023-05-10T11:02:34;24.00;95.10
11965;DHT22;6042;41.326;19.826;2023-05-10T11:05:34;24.00;94.80
11965;DHT22;6042;41.326;19.826;2023-05-10T11:08:17;24.30;94.40
11965;DHT22;6042;41.326;19.826;2023-05-10T11:11:04;24.60;94.30
11965;DHT22;6042;41.326;19.826;2023-05-10T11:13:38;24.90;93.60
11965;DHT22;6042;41.326;19.826;2023-05-10T11:16:16;25.20;94.00
11965;DHT22;6042;41.326;19.826;2023-05-10T11:18:59;25.30;92.20
11965;DHT22;6042;41.326;19.826;2023-05-10T11:21:29;25.10;91.90
11965;DHT22;6042;41.326;19.826;2023-05-10T11:23:59;25.00;92.10
11965;DHT22;6042;41.326;19.826;2023-05-10T11:26:35;25.10;92.00
11965;DHT22;6042;41.326;19.826;2023-05-10T11:29:04;24.90;93.30
11965;DHT22;6042;41.326;19.826;2023-05-10T11:31:34;24.90;92.90
11965;DHT22;6042;41.326;19.826;2023-05-10T11:34:03;25.00;95.90
11965;DHT22;6042;41.326;19.826;2023-05-10T11:36:33;24.90;96.90
11965;DHT22;6042;41.326;19.826;2023-05-10T11:39:05;24.80;98.50
11965;DHT22;6042;41.326;19.826;2023-05-10T11:41:34;24.70;99.10
11965;DHT22;6042;41.326;19.826;2023-05-10T11:44:03;24.80;99.60
11965;DHT22;6042;41.326;19.826;2023-05-10T11:46:32;24.90;99.40
11965;DHT22;6042;41.326;19.826;2023-05-10T11:49:02;24.80;99.30
11965;DHT22;6042;41.326;19.826;2023-05-10T11:51:34;24.60;99.30
11965;DHT22;6042;41.326;19.826;2023-05-10T11:54:06;24.30;99.90
11965;DHT22;6042;41.326;19.826;2023-05-10T11:56:36;24.10;99.90
11965;DHT22;6042;41.326;19.826;2023-05-10T11:59:05;23.90;99.90
11965;DHT22;6042;41.326;19.826;2023-05-10T12:01:35;23.60;99.90
11965;DHT22;6042;41.326;19.826;2023-05-10T12:04:05;23.60;99.90
11965;DHT22;6042;41.326;19.826;2023-05-10T12:06:39;24.00;99.90
11965;DHT22;6042;41.326;19.826;2023-05-10T12:09:08;24.10;99.90
11965;DHT22;6042;41.326;19.826;2023-05-10T12:11:38;24.10;99.90
11965;DHT22;6042;41.326;19.826;2023-05-10T12:14:10;24.40;99.40
11965;DHT22;6042;41.326;19.826;2023-05-10T12:16:39;24.70;99.50
11965;DHT22;6042;41.326;19.826;2023-05-10T12:19:10;24.90;99.70
11965;DHT22;6042;41.326;19.826;2023-05-10T12:21:38;25.30;99.30
11965;DHT22;6042;41.326;19.826;2023-05-10T12:24:08;25.00;99.20
11965;DHT22;6042;41.326;19.826;2023-05-10T12:26:37;24.70;99.60
11965;DHT22;6042;41.326;19.826;2023-05-10T12:29:13;24.70;99.90
11965;DHT22;6042;41.326;19.826;2023-05-10T12:31:56;24.60;99.90
11965;DHT22;6042;41.326;19.826;2023-05-10T12:34:29;24.70;99.90
11965;DHT22;6042;41.326;19.826;2023-05-10T12:36:59;24.60;99.90
11965;DHT22;6042;41.326;19.826;2023-05-10T12:39:38;24.70;99.90
11965;DHT22;6042;41.326;19.826;2023-05-10T12:42:08;25.10;99.80
11965;DHT22;6042;41.326;19.826;2023-05-10T12:44:36;25.60;99.00
11965;DHT22;6042;41.326;19.826;2023-05-10T12:47:06;25.80;98.70
11965;DHT22;6042;41.326;19.826;2023-05-10T12:49:36;25.70;99.00
11965;DHT22;6042;41.326;19.826;2023-05-10T12:52:04;25.20;99.00
11965;DHT22;6042;41.326;19.826;2023-05-10T12:54:33;24.50;99.90
11965;DHT22;6042;41.326;19.826;2023-05-10T12:57:02;24.30;99.90
11965;DHT22;6042;41.326;19.826;2023-05-10T12:59:30;24.20;99.90
11965;DHT22;6042;41.326;19.826;2023-05-10T13:02:00;24.40;99.90
11965;DHT22;6042;41.326;19.826;2023-05-10T13:04:28;24.70;99.90
11965;DHT22;6042;41.326;19.826;2023-05-10T13:06:58;24.30;99.90
11965;DHT22;6042;41.326;19.826;2023-05-10T13:09:27;23.60;99.90
11965;DHT22;6042;41.326;19.826;2023-05-10T13:11:56;23.10;99.90
11965;DHT22;6042;41.326;19.826;2023-05-10T13:14:25;22.70;99.90
11965;DHT22;6042;41.326;19.826;2023-05-10T13:16:54;22.70;99.90
11965;DHT22;6042;41.326;19.826;2023-05-10T13:19:23;22.70;99.90
11965;DHT22;6042;41.326;19.826;2023-05-10T13:21:53;22.60;99.90
11965;DHT22;6042;41.326;19.826;2023-05-10T13:24:24;22.50;99.90
11965;DHT22;6042;41.326;19.826;2023-05-10T13:26:53;22.30;99.90
11965;DHT22;6042;41.326;19.826;2023-05-10T13:29:21;22.20;99.90
11965;DHT22;6042;41.326;19.826;2023-05-10T13:31:50;22.30;99.90
11965;DHT22;6042;41.326;19.826;2023-05-10T13:34:19;22.20;99.90
11965;DHT22;6042;41.326;19.826;2023-05-10T13:36:48;21.90;99.90
11965;DHT22;6042;41.326;19.826;2023-05-10T13:39:17;22.00;99.90
11965;DHT22;6042;41.326;19.826;2023-05-10T13:41:47;22.00;99.90
11965;DHT22;6042;41.326;19.826;2023-05-10T13:44:15;21.90;99.90
11965;DHT22;6042;41.326;19.826;2023-05-10T13:46:44;21.90;99.90
11965;DHT22;6042;41.326;19.826;2023-05-10T13:49:12;21.90;99.90
11965;DHT22;6042;41.326;19.826;2023-05-10T13:51:42;21.80;99.90
11965;DHT22;6042;41.326;19.826;2023-05-10T13:54:11;21.60;99.90
11965;DHT22;6042;41.326;19.826;2023-05-10T13:56:41;21.60;99.90
11965;DHT22;6042;41.326;19.826;2023-05-10T13:59:13;21.60;99.90
11965;DHT22;6042;41.326;19.826;2023-05-10T14:01:42;21.70;99.90
11965;DHT22;6042;41.326;19.826;2023-05-10T14:04:11;21.70;99.90
11965;DHT22;6042;41.326;19.826;2023-05-10T14:06:40;21.50;99.90
11965;DHT22;6042;41.326;19.826;2023-05-10T14:09:08;21.50;99.90
11965;DHT22;6042;41.326;19.826;2023-05-10T14:11:37;21.20;99.90
11965;DHT22;6042;41.326;19.826;2023-05-10T14:14:08;21.20;99.90
11965;DHT22;6042;41.326;19.826;2023-05-10T14:16:41;21.00;99.90
11965;DHT22;6042;41.326;19.826;2023-05-10T14:19:10;20.90;99.90
11965;DHT22;6042;41.326;19.826;2023-05-10T14:21:38;20.90;99.90
11965;DHT22;6042;41.326;19.826;2023-05-10T14:24:07;21.00;99.90
11965;DHT22;6042;41.326;19.826;2023-05-10T14:26:35;21.10;99.90
11965;DHT22;6042;41.326;19.826;2023-05-10T14:29:04;21.10;99.90
11965;DHT22;6042;41.326;19.826;2023-05-10T14:31:34;21.00;99.90
11965;DHT22;6042;41.326;19.826;2023-05-10T14:34:04;21.20;99.90
11965;DHT22;6042;41.326;19.826;2023-05-10T14:36:33;21.40;99.90
11965;DHT22;6042;41.326;19.826;2023-05-10T14:39:02;21.10;99.90
11965;DHT22;6042;41.326;19.826;2023-05-10T14:41:31;21.10;99.90
11965;DHT22;6042;41.326;19.826;2023-05-10T14:43:59;21.00;99.90
11965;DHT22;6042;41.326;19.826;2023-05-10T14:46:30;20.80;99.90
11965;DHT22;6042;41.326;19.826;2023-05-10T14:48:59;20.70;99.90
11965;DHT22;6042;41.326;19.826;2023-05-10T14:51:29;20.60;99.90
11965;DHT22;6042;41.326;19.826;2023-05-10T14:53:59;20.70;99.90
11965;DHT22;6042;41.326;19.826;2023-05-10T14:56:27;20.80;99.90
11965;DHT22;6042;41.326;19.826;2023-05-10T14:58:56;20.70;99.90
11965;DHT22;6042;41.326;19.826;2023-05-10T15:01:25;20.70;99.90
11965;DHT22;6042;41.326;19.826;2023-05-10T15:03:54;20.70;99.90
11965;DHT22;6042;41.326;19.826;2023-05-10T15:06:29;20.70;99.90
11965;DHT22;6042;41.326;19.826;2023-05-10T15:09:01;20.60;99.90
11965;DHT22;6042;41.326;19.826;2023-05-10T15:11:30;20.50;99.90
11965;DHT22;6042;41.326;19.826;2023-05-10T15:13:59;20.50;99.90
11965;DHT22;6042;41.326;19.826;2023-05-10T15:16:28;20.50;99.90
11965;DHT22;6042;41.326;19.826;2023-05-10T15:19:01;20.40;99.90
11965;DHT22;6042;41.326;19.826;2023-05-10T15:21:30;20.30;99.90
11965;DHT22;6042;41.326;19.826;2023-05-10T15:24:07;20.40;99.90
11965;DHT22;6042;41.326;19.826;2023-05-10T15:26:36;20.30;99.90
11965;DHT22;6042;41.326;19.826;2023-05-10T15:29:04;20.20;99.90
11965;DHT22;6042;41.326;19.826;2023-05-10T15:31:36;19.90;99.90
11965;DHT22;6042;41.326;19.826;2023-05-10T15:34:07;19.60;99.90
11965;DHT22;6042;41.326;19.826;2023-05-10T15:36:36;19.50;99.90
11965;DHT22;6042;41.326;19.826;2023-05-10T15:39:05;19.40;99.90
11965;DHT22;6042;41.326;19.826;2023-05-10T15:41:34;19.30;99.90
11965;DHT22;6042;41.326;19.826;2023-05-10T15:44:03;19.20;99.90
11965;DHT22;6042;41.326;19.826;2023-05-10T15:46:32;19.10;99.90
11965;DHT22;6042;41.326;19.826;2023-05-10T15:49:00;19.00;99.90
11965;DHT22;6042;41.326;19.826;2023-05-10T15:51:29;18.80;99.90
11965;DHT22;6042;41.326;19.826;2023-05-10T15:54:02;18.50;99.90
11965;DHT22;6042;41.326;19.826;2023-05-10T15:56:36;18.40;99.90
11965;DHT22;6042;41.326;19.826;2023-05-10T15:59:04;18.20;99.90
11965;DHT22;6042;41.326;19.826;2023-05-10T16:01:34;18.20;99.90